Latest Coastal Weather Observations for Maningrida Airport

IDD60701

Issued at 1:11 pm CST Friday 20 January 2017 (issued every 10 minutes, with the page automatically refreshed every 10 minutes)

About coastal observations | Map of coastal stations | Coastal observations for NT | Marine services | Other Formats
Station Details ID: 014405 Name: MANINGRIDA AIRPORT Lat: -12.06 Lon: 134.23 Height: 28.1 m
Data from the previous 72 hours. | See also: Recent months at Maningrida Airport
Date/Time
CST
Temp
°C
Wind Pressure Rain since
9am
mm
Weather Cloud Vis
km
Sea
Height
m
Swell
Dir  Spd
kts
Gust
kts
hPa Trend Height
m
Period
s
Dir
20/01:00pm 28.4 N 8 12 1007.0 - 9.4 - Partly cloudy 10 - - - -
20/12:47pm 27.9 N 7 10 1007.1 - 9.4 - Partly cloudy 10 - - - -
20/12:46pm 28.2 NNE 7 10 1007.1 - 9.4 - Partly cloudy 10 - - - -
20/12:30pm 26.3 N 11 23 1007.2 - 9.2 - Partly cloudy 1 - - - -
20/12:28pm 26.9 NNW 12 23 1007.2 - 9.0 - Partly cloudy 1 - - - -
20/12:20pm 26.5 NNW 14 21 1007.6 - 2.2 - Partly cloudy 4 - - - -
20/12:00pm 29.8 N 12 15 1007.6 - 0.0 - Cloudy 10 - - - -
20/11:30am 30.8 NNW 9 13 1008.0 - 0.0 - Partly cloudy 10 - - - -
20/11:00am 31.2 NW 7 11 1008.3 - 0.0 - - 10 - - - -
20/10:30am 30.6 WNW 7 11 1008.7 - 0.0 - - 10 - - - -
20/10:00am 29.8 WSW 5 8 1009.2 - 0.0 - - 10 - - - -
20/09:30am 28.7 WNW 5 9 1009.1 - 0.0 - - 10 - - - -
20/09:00am 27.0 SW 4 6 1008.9 - 37.0 - Mostly clear 10 - - - -
20/08:30am 26.8 WSW 5 7 1008.6 - 37.0 - - 10 - - - -
20/08:00am 25.2 SW 4 5 1008.4 - 37.0 - - 10 - - - -
20/07:30am 24.6 SW 3 5 1008.0 - 37.0 - - 10 - - - -
20/07:00am 24.4 SW 3 4 1007.7 - 37.0 - - 10 - - - -
20/06:30am 24.2 CALM 0 1 1007.3 - 37.0 - - 10 - - - -
20/06:00am 24.2 WSW 2 4 1006.9 - 37.0 Rain Cloudy 10 - - - -
20/05:30am 24.1 CALM 0 0 1006.8 - 37.0 - - 10 - - - -
20/05:00am 24.0 SW 2 4 1006.7 - 37.0 - Partly cloudy 10 - - - -
20/04:30am 24.0 SW 4 6 1006.6 - 37.0 - Partly cloudy 10 - - - -
20/04:00am 23.9 WSW 4 5 1006.8 - 36.8 - Partly cloudy 10 - - - -
20/03:30am 23.8 WSW 2 4 1007.0 - 36.8 - Partly cloudy 10 - - - -
20/03:00am 23.8 SW 3 5 1007.4 - 36.6 Rain Cloudy 10 - - - -
20/02:54am 23.8 WSW 3 5 1007.6 - 36.4 - Partly cloudy 9 - - - -
20/02:30am 24.0 W 4 5 1008.1 - 35.2 - Partly cloudy 5 - - - -
20/02:00am 23.9 WSW 4 6 1008.4 - 33.2 - Partly cloudy 5 - - - -
20/01:54am 23.9 WSW 4 7 1008.5 - 32.8 - Partly cloudy 5 - - - -
20/01:30am 24.0 W 3 5 1008.9 - 31.6 - Partly cloudy 8 - - - -
20/01:28am 24.0 W 3 5 1008.9 - 31.4 - Partly cloudy 8 - - - -
20/01:07am 24.0 W 3 7 1009.0 - 30.2 - Partly cloudy 5 - - - -
20/01:00am 24.1 WSW 3 5 1009.0 - 29.8 - Partly cloudy 7 - - - -
20/12:30am 24.2 SSW 5 7 1009.2 - 29.0 - Partly cloudy 10 - - - -
20/12:19am 24.4 SSW 5 8 1009.5 - 28.6 - Partly cloudy 10 - - - -
20/12:01am 24.3 SSW 4 8 1009.4 - 28.0 - Partly cloudy 5 - - - -
20/12:00am 24.3 SSW 4 8 1009.4 - 27.8 Rain Cloudy 6 - - - -
 
Date/Time
CST
Temp
°C
Wind Pressure Rain since
9am
mm
Weather Cloud Vis
km
Sea
Height
m
Swell
Dir  Spd
kts
Gust
kts
hPa Trend Height
m
Period
s
Dir
19/11:30pm 24.3 S 8 12 1009.4 - 27.2 - Partly cloudy 10 - - - -
19/11:26pm 24.3 S 8 12 1009.5 - 27.2 - Partly cloudy 10 - - - -
19/11:12pm 24.7 SSW 9 15 1009.6 - 26.8 - Partly cloudy 5 - - - -
19/11:07pm 24.9 SSW 8 15 1009.5 - 26.4 - Partly cloudy 10 - - - -
19/11:00pm 25.6 SSW 6 9 1009.6 - 25.8 - Partly cloudy 10 - - - -
19/10:46pm 25.7 E 6 9 1009.5 - 23.6 - Partly cloudy 4 - - - -
19/10:40pm 25.9 E 6 8 1009.4 - 21.4 - Partly cloudy 10 - - - -
19/10:36pm 25.8 SE 5 8 1009.3 - 21.2 - Partly cloudy 10 - - - -
19/10:30pm 25.7 SSE 5 8 1009.2 - 21.2 - Partly cloudy 5 - - - -
19/10:14pm 26.0 WNW 7 14 1009.6 - 17.2 - Partly cloudy 0.7 - - - -
19/10:00pm 26.6 NNW 6 11 1009.0 - 6.2 - Partly cloudy 1 - - - -
19/09:54pm 27.3 NW 7 11 1009.1 - 2.6 - Partly cloudy 3 - - - -
19/09:30pm 27.8 NW 9 11 1008.9 - 0.0 - Partly cloudy 10 - - - -
19/09:00pm 28.4 NNW 10 13 1008.6 - 0.0 Showers Cloudy 10 - - - -
19/08:30pm 28.1 NW 10 15 1008.3 - 0.0 - Partly cloudy 10 - - - -
19/08:00pm 28.7 NNW 12 16 1008.0 - 0.0 - Partly cloudy 10 - - - -
19/07:30pm 28.5 NNW 13 18 1007.7 - 0.0 - - 10 - - - -
19/07:00pm 29.0 NNW 11 15 1007.7 - 0.0 - - 10 - - - -
19/06:30pm 29.1 NNW 13 18 1006.9 - 0.0 - - 10 - - - -
19/06:00pm 29.5 NNW 10 15 1007.0 - 0.0 - Mostly cloudy 10 - - - -
19/05:30pm 29.5 N 11 14 1006.0 - 0.0 - Partly cloudy 10 - - - -
19/05:00pm 29.7 N 11 15 1005.9 - 0.0 - - 10 - - - -
19/04:30pm 29.7 NNW 12 16 1005.5 - 0.0 - - 10 - - - -
19/04:00pm 30.7 N 12 17 1005.5 - 0.0 - - 10 - - - -
19/03:30pm 30.6 N 11 13 1006.0 - 0.0 - - 10 - - - -
19/03:00pm 31.3 N 10 12 1006.7 - 0.0 - Partly cloudy 10 - - - -
19/02:30pm 30.6 N 10 12 1007.1 - 0.0 - - 10 - - - -
19/02:00pm 30.5 NNW 12 17 1007.6 - 0.0 - - 10 - - - -
19/01:30pm 31.4 NNW 12 15 1008.2 - 0.0 - - 10 - - - -
19/01:00pm 31.6 N 10 13 1008.5 - 0.0 - Partly cloudy 10 - - - -
19/12:30pm 31.8 NNW 6 9 1009.0 - 0.0 - Partly cloudy 10 - - - -
19/12:00pm 32.2 WSW 6 9 1009.4 - 0.0 - - 10 - - - -
19/11:30am 31.1 WNW 7 10 1009.8 - 0.0 - Partly cloudy 10 - - - -
19/11:00am 30.8 W 7 11 1010.2 - 0.0 - - 10 - - - -
19/10:30am 30.8 SW 5 7 1010.5 - 0.0 - - 10 - - - -
19/10:00am 29.3 WSW 5 7 1011.0 - 0.0 - - 10 - - - -
19/09:30am 28.4 WSW 4 6 1011.1 - 0.0 - - 10 - - - -
19/09:00am 27.9 SW 4 6 1011.0 - 1.0 - Cloudy 10 - - - -
19/08:30am 27.2 SW 4 6 1010.8 - 1.0 - - 10 - - - -
19/08:00am 26.4 WSW 3 5 1010.6 - 1.0 - - 10 - - - -
19/07:30am 25.3 SW 2 4 1010.5 - 1.0 - - 10 - - - -
19/07:00am 24.5 SW 1 4 1010.2 - 1.0 - - 10 - - - -
19/06:30am 24.4 CALM 0 0 1009.7 - 1.0 - - 10 - - - -
19/06:00am 24.5 CALM 0 0 1009.5 - 1.0 - Mostly cloudy 10 - - - -
19/05:30am 24.5 CALM 0 0 1009.0 - 1.0 - - 10 - - - -
19/05:00am 24.5 SW 1 4 1008.5 - 1.0 - - 10 - - - -
19/04:30am 24.7 CALM 0 0 1008.3 - 1.0 - - 10 - - - -
19/04:00am 24.8 CALM 0 0 1008.5 - 1.0 - - 10 - - - -
19/03:30am 24.8 SW 3 4 1008.8 - 1.0 - - 10 - - - -
19/03:00am 25.0 SW 4 5 1009.0 - 1.0 Drizzle Cloudy 10 - - - -
19/02:30am 25.0 SW 4 6 1009.2 - 1.0 - Partly cloudy 10 - - - -
19/02:00am 25.2 WSW 3 5 1009.7 - 0.8 - - 10 - - - -
19/01:30am 25.2 WSW 3 5 1010.0 - 0.6 - - 10 - - - -
19/01:00am 24.9 SSW 3 4 1010.5 - 0.6 - Partly cloudy 10 - - - -
19/12:30am 24.9 SSW 3 4 1010.6 - 0.6 - Partly cloudy 10 - - - -
19/12:00am 24.9 SSW 3 5 1011.1 - 0.6 Drizzle Cloudy 10 - - - -
 
Date/Time
CST
Temp
°C
Wind Pressure Rain since
9am
mm
Weather Cloud Vis
km
Sea
Height
m
Swell
Dir  Spd
kts
Gust
kts
hPa Trend Height
m
Period
s
Dir
18/11:30pm 25.0 SW 4 5 1011.1 - 0.6 - Partly cloudy 10 - - - -
18/11:00pm 24.9 SSW 3 4 1011.4 - 0.6 - Partly cloudy 10 - - - -
18/10:53pm 25.1 SSW 2 4 1011.4 - 0.6 - Partly cloudy 10 - - - -
18/10:30pm 25.0 SSW 4 5 1011.4 - 0.6 - Partly cloudy 0.1 - - - -
18/10:00pm 25.2 CALM 0 0 1011.0 - 0.6 - - 0.1 - - - -
18/09:49pm 25.5 CALM 0 2 1010.8 - 0.6 - - 4 - - - -
18/09:30pm 25.6 W 2 4 1010.6 - 0.6 - - 10 - - - -
18/09:00pm 25.4 W 3 6 1010.2 - 0.6 - Cloudy 10 - - - -
18/08:30pm 25.2 W 3 4 1009.9 - 0.6 - - 10 - - - -
18/08:00pm 25.4 WNW 4 6 1009.7 - 0.6 - - 10 - - - -
18/07:30pm 26.1 W 6 9 1009.5 - 0.6 - Partly cloudy 10 - - - -
18/07:00pm 27.5 NW 7 10 1009.9 - 0.6 - Partly cloudy 10 - - - -
18/06:40pm 27.5 NNW 7 9 1009.9 - 0.6 - Partly cloudy 10 - - - -
18/06:30pm 27.5 N 7 10 1009.8 - 0.6 - Partly cloudy 10 - - - -
18/06:00pm 27.3 N 7 9 1009.6 - 0.6 - Partly cloudy 10 - - - -
18/05:56pm 27.4 N 7 9 1009.5 - 0.6 - Partly cloudy 10 - - - -
18/05:30pm 27.3 N 5 8 1009.4 - 0.6 - - 10 - - - -
18/05:00pm 27.2 N 7 11 1009.2 - 0.6 - Partly cloudy 10 - - - -
18/04:30pm 26.9 N 8 11 1009.3 - 0.6 - - 10 - - - -
18/04:00pm 26.7 N 6 9 1009.1 - 0.6 - Partly cloudy 10 - - - -
18/03:30pm 27.2 N 6 10 1009.3 - 0.6 - Partly cloudy 10 - - - -
18/03:01pm 26.5 NNE 8 11 1009.2 - 0.6 - Partly cloudy 10 - - - -
18/03:00pm 26.6 NNE 8 11 1009.2 - 0.6 Drizzle Cloudy 10 - - - -
18/02:30pm 27.2 NNE 5 8 1009.1 - 0.6 - Partly cloudy 10 - - - -
18/02:27pm 27.2 NE 5 7 1009.0 - 0.6 - Partly cloudy 10 - - - -
18/02:00pm 26.9 NNE 6 8 1009.7 - 0.6 - Partly cloudy 10 - - - -
18/01:30pm 26.5 ENE 5 7 1010.0 - 0.6 - - 10 - - - -
18/01:00pm 26.5 ENE 4 5 1009.8 - 0.6 - Partly cloudy 10 - - - -
18/12:30pm 25.9 NE 4 6 1010.2 - 0.6 - Partly cloudy 10 - - - -
18/12:00pm 25.9 NNE 7 10 1010.8 - 0.2 Rain Partly cloudy 10 - - - -
18/11:30am 26.1 NE 6 9 1011.0 - 0.2 - Partly cloudy 10 - - - -
18/11:00am 26.1 NNE 8 12 1011.4 - 0.0 - Partly cloudy 10 - - - -
18/10:30am 27.6 N 6 12 1011.2 - 0.0 - Partly cloudy 10 - - - -
18/10:00am 28.2 NW 4 5 1011.2 - 0.0 - Partly cloudy 10 - - - -
18/09:30am 28.3 WNW 4 5 1011.6 - 0.0 - - 10 - - - -
18/09:00am 28.0 WNW 6 10 1011.2 - 1.2 - Partly cloudy 10 - - - -
18/08:30am 27.8 CALM 0 0 1011.1 - 1.2 - - 10 - - - -
18/08:00am 27.8 SW 2 3 1010.9 - 1.2 - - 10 - - - -
18/07:30am 27.4 SW 2 3 1010.5 - 1.2 - - 10 - - - -
18/07:00am 26.3 SW 3 4 1010.2 - 1.2 - Partly cloudy 10 - - - -
18/06:30am 26.1 SSW 1 3 1009.6 - 1.2 - Partly cloudy 10 - - - -
18/06:00am 26.1 SSW 2 3 1009.1 - 1.2 - Partly cloudy 10 - - - -
18/05:30am 26.2 SSW 3 4 1008.9 - 1.2 - - 10 - - - -
18/05:00am 26.0 SSW 3 5 1008.7 - 1.2 - - 10 - - - -
18/04:30am 26.3 CALM 0 0 1008.4 - 1.2 - - 10 - - - -
18/04:00am 26.2 CALM 0 0 1008.4 - 1.2 - Partly cloudy 10 - - - -
18/03:30am 26.3 CALM 0 0 1008.5 - 1.2 - Partly cloudy 10 - - - -
18/03:00am 26.3 W 1 4 1008.6 - 0.6 Showers Cloudy 10 - - - -
18/02:30am 26.7 NW 7 12 1008.7 - 0.2 - Partly cloudy 10 - - - -
18/02:00am 27.0 WSW 3 4 1008.7 - 0.0 - Partly cloudy 10 - - - -
18/01:30am 27.4 W 3 4 1008.8 - 0.0 - - 10 - - - -
18/01:00am 27.7 W 2 3 1009.1 - 0.0 - - 10 - - - -
18/12:30am 28.2 WNW 3 6 1009.3 - 0.0 - - 10 - - - -
18/12:00am 28.3 WNW 4 6 1009.4 - 0.0 - Partly cloudy 10 - - - -
 
Date/Time
CST
Temp
°C
Wind Pressure Rain since
9am
mm
Weather Cloud Vis
km
Sea
Height
m
Swell
Dir  Spd
kts
Gust
kts
hPa Trend Height
m
Period
s
Dir
17/11:30pm 28.5 NW 5 8 1009.4 - 0.0 - - 10 - - - -
17/11:00pm 28.5 WNW 5 9 1009.5 - 0.0 - - 10 - - - -
17/10:30pm 28.8 NW 7 10 1009.4 - 0.0 - - 10 - - - -
17/10:00pm 28.9 NW 8 14 1009.2 - 0.0 - Partly cloudy 10 - - - -
17/09:30pm 29.0 NNW 12 17 1009.1 - 0.0 - Partly cloudy 10 - - - -
17/09:00pm 29.2 NNW 13 16 1008.9 - 0.0 - Mostly clear 10 - - - -
17/08:30pm 29.2 N 9 13 1008.7 - 0.0 - Partly cloudy 10 - - - -
17/08:00pm 29.2 N 9 11 1008.8 - 0.0 - Partly cloudy 10 - - - -
17/07:30pm 29.3 N 7 10 1008.7 - 0.0 - Partly cloudy 10 - - - -
17/07:00pm 29.4 N 9 12 1008.5 - 0.0 - Partly cloudy 10 - - - -
17/06:30pm 29.7 N 10 13 1008.2 - 0.0 - - 10 - - - -
17/06:00pm 29.8 N 10 15 1007.6 - 0.0 - Mostly clear 10 - - - -
17/05:30pm 30.1 N 11 15 1007.0 - 0.0 - - 10 - - - -
17/05:00pm 30.2 N 11 15 1006.8 - 0.0 - Partly cloudy 10 - - - -
17/04:30pm 30.6 N 13 16 1006.5 - 0.0 - - 10 - - - -
17/04:00pm 31.0 N 11 15 1006.8 - 0.0 - - 10 - - - -
17/03:30pm 31.4 N 11 15 1006.9 - 0.0 - - 10 - - - -
17/03:00pm 31.4 N 12 16 1006.8 - 0.0 - - 10 - - - -
17/02:30pm 31.6 N 10 14 1007.1 - 0.0 - - 10 - - - -
17/02:00pm 31.1 N 11 15 1007.4 - 0.0 - - 10 - - - -
17/01:30pm 31.4 N 9 12 1007.7 - 0.0 - - 10 - - - -

Other Formats:

Comma delimited format used in spreadsheet applications
http://www.bom.gov.au/fwo/IDD60701/IDD60701.95142.axf

JavaScript Object Notation format (JSON) in row-major order
http://www.bom.gov.au/fwo/IDD60701/IDD60701.95142.json